sensor_id;sensor_type;location;lat;lon;timestamp;temperature;humidity
19242;DHT22;9755;47.790;9.620;2022-08-24T00:00:32;13.40;99.90
19242;DHT22;9755;47.790;9.620;2022-08-24T00:03:00;13.30;99.90
19242;DHT22;9755;47.790;9.620;2022-08-24T00:05:27;13.20;99.90
19242;DHT22;9755;47.790;9.620;2022-08-24T00:07:54;13.10;99.90
19242;DHT22;9755;47.790;9.620;2022-08-24T00:10:21;13.00;99.90
19242;DHT22;9755;47.790;9.620;2022-08-24T00:12:48;12.90;99.90
19242;DHT22;9755;47.790;9.620;2022-08-24T00:15:17;12.90;99.90
19242;DHT22;9755;47.790;9.620;2022-08-24T00:17:44;12.90;99.90
19242;DHT22;9755;47.790;9.620;2022-08-24T00:20:12;12.90;99.90
19242;DHT22;9755;47.790;9.620;2022-08-24T00:22:39;13.10;99.90
19242;DHT22;9755;47.790;9.620;2022-08-24T00:25:09;13.10;99.90
19242;DHT22;9755;47.790;9.620;2022-08-24T00:27:37;13.10;99.90
19242;DHT22;9755;47.790;9.620;2022-08-24T00:30:05;13.10;99.90
19242;DHT22;9755;47.790;9.620;2022-08-24T00:32:35;13.10;99.90
19242;DHT22;9755;47.790;9.620;2022-08-24T00:35:03;13.00;99.90
19242;DHT22;9755;47.790;9.620;2022-08-24T00:37:31;13.00;99.90
19242;DHT22;9755;47.790;9.620;2022-08-24T00:39:58;12.80;99.90
19242;DHT22;9755;47.790;9.620;2022-08-24T00:42:26;12.70;99.90
19242;DHT22;9755;47.790;9.620;2022-08-24T00:44:53;12.80;99.90
19242;DHT22;9755;47.790;9.620;2022-08-24T00:47:23;12.80;99.90
19242;DHT22;9755;47.790;9.620;2022-08-24T00:49:55;12.60;99.90
19242;DHT22;9755;47.790;9.620;2022-08-24T00:52:25;12.60;99.90
19242;DHT22;9755;47.790;9.620;2022-08-24T00:54:57;12.70;99.90
19242;DHT22;9755;47.790;9.620;2022-08-24T00:57:29;12.60;99.90
19242;DHT22;9755;47.790;9.620;2022-08-24T00:59:59;12.50;99.90
19242;DHT22;9755;47.790;9.620;2022-08-24T01:02:30;12.40;99.90
19242;DHT22;9755;47.790;9.620;2022-08-24T01:05:02;12.30;99.90
19242;DHT22;9755;47.790;9.620;2022-08-24T01:07:32;12.30;99.90
19242;DHT22;9755;47.790;9.620;2022-08-24T01:10:03;12.20;99.90
19242;DHT22;9755;47.790;9.620;2022-08-24T01:12:32;12.20;99.90
19242;DHT22;9755;47.790;9.620;2022-08-24T01:15:02;12.30;99.90
19242;DHT22;9755;47.790;9.620;2022-08-24T01:17:30;12.30;99.90
19242;DHT22;9755;47.790;9.620;2022-08-24T01:20:16;12.30;99.90
19242;DHT22;9755;47.790;9.620;2022-08-24T01:22:59;12.40;99.90
19242;DHT22;9755;47.790;9.620;2022-08-24T01:25:32;12.40;99.90
19242;DHT22;9755;47.790;9.620;2022-08-24T01:28:03;12.30;99.90
19242;DHT22;9755;47.790;9.620;2022-08-24T01:30:32;12.20;99.90
19242;DHT22;9755;47.790;9.620;2022-08-24T01:33:01;12.30;99.90
19242;DHT22;9755;47.790;9.620;2022-08-24T01:35:29;12.20;99.90
19242;DHT22;9755;47.790;9.620;2022-08-24T01:38:00;12.10;99.90
19242;DHT22;9755;47.790;9.620;2022-08-24T01:40:33;12.00;99.90
19242;DHT22;9755;47.790;9.620;2022-08-24T01:43:02;11.90;99.90
19242;DHT22;9755;47.790;9.620;2022-08-24T01:45:31;11.90;99.90
19242;DHT22;9755;47.790;9.620;2022-08-24T01:47:58;12.10;99.90
19242;DHT22;9755;47.790;9.620;2022-08-24T01:50:27;12.10;99.90
19242;DHT22;9755;47.790;9.620;2022-08-24T01:52:57;12.00;99.90
19242;DHT22;9755;47.790;9.620;2022-08-24T01:55:28;12.00;99.90
19242;DHT22;9755;47.790;9.620;2022-08-24T01:57:55;12.00;99.90
19242;DHT22;9755;47.790;9.620;2022-08-24T02:00:23;12.10;99.90
19242;DHT22;9755;47.790;9.620;2022-08-24T02:02:50;12.10;99.90
19242;DHT22;9755;47.790;9.620;2022-08-24T02:05:18;12.10;99.90
19242;DHT22;9755;47.790;9.620;2022-08-24T02:07:45;12.10;99.90
19242;DHT22;9755;47.790;9.620;2022-08-24T02:10:13;12.10;99.90
19242;DHT22;9755;47.790;9.620;2022-08-24T02:12:45;12.20;99.90
19242;DHT22;9755;47.790;9.620;2022-08-24T02:15:22;12.20;99.90
19242;DHT22;9755;47.790;9.620;2022-08-24T02:17:52;12.20;99.90
19242;DHT22;9755;47.790;9.620;2022-08-24T02:20:19;12.20;99.90
19242;DHT22;9755;47.790;9.620;2022-08-24T02:22:47;12.00;99.90
19242;DHT22;9755;47.790;9.620;2022-08-24T02:25:14;11.80;99.90
19242;DHT22;9755;47.790;9.620;2022-08-24T02:27:43;11.80;99.90
19242;DHT22;9755;47.790;9.620;2022-08-24T02:30:11;11.70;99.90
19242;DHT22;9755;47.790;9.620;2022-08-24T02:32:38;11.70;99.90
19242;DHT22;9755;47.790;9.620;2022-08-24T02:35:06;11.70;99.90
19242;DHT22;9755;47.790;9.620;2022-08-24T02:37:33;11.70;99.90
19242;DHT22;9755;47.790;9.620;2022-08-24T02:40:01;11.60;99.90
19242;DHT22;9755;47.790;9.620;2022-08-24T02:42:29;11.50;99.90
19242;DHT22;9755;47.790;9.620;2022-08-24T02:44:57;11.50;99.90
19242;DHT22;9755;47.790;9.620;2022-08-24T02:47:25;11.50;99.90
19242;DHT22;9755;47.790;9.620;2022-08-24T02:49:52;11.40;99.90
19242;DHT22;9755;47.790;9.620;2022-08-24T02:52:20;11.50;99.90
19242;DHT22;9755;47.790;9.620;2022-08-24T02:54:47;11.60;99.90
19242;DHT22;9755;47.790;9.620;2022-08-24T02:57:14;11.60;99.90
19242;DHT22;9755;47.790;9.620;2022-08-24T02:59:42;11.50;99.90
19242;DHT22;9755;47.790;9.620;2022-08-24T03:02:10;11.30;99.90
19242;DHT22;9755;47.790;9.620;2022-08-24T03:04:37;11.40;99.90
19242;DHT22;9755;47.790;9.620;2022-08-24T03:07:04;11.50;99.90
19242;DHT22;9755;47.790;9.620;2022-08-24T03:09:32;11.50;99.90
19242;DHT22;9755;47.790;9.620;2022-08-24T03:11:59;11.50;99.90
19242;DHT22;9755;47.790;9.620;2022-08-24T03:14:26;11.40;99.90
19242;DHT22;9755;47.790;9.620;2022-08-24T03:16:53;11.40;99.90
19242;DHT22;9755;47.790;9.620;2022-08-24T03:19:21;11.30;99.90
19242;DHT22;9755;47.790;9.620;2022-08-24T03:21:48;11.20;99.90
19242;DHT22;9755;47.790;9.620;2022-08-24T03:24:16;10.90;99.90
19242;DHT22;9755;47.790;9.620;2022-08-24T03:26:43;10.80;99.90
19242;DHT22;9755;47.790;9.620;2022-08-24T03:29:10;10.90;99.90
19242;DHT22;9755;47.790;9.620;2022-08-24T03:31:37;11.00;99.90
19242;DHT22;9755;47.790;9.620;2022-08-24T03:34:04;11.00;99.90
19242;DHT22;9755;47.790;9.620;2022-08-24T03:36:32;10.70;99.90
19242;DHT22;9755;47.790;9.620;2022-08-24T03:38:59;10.60;99.90
19242;DHT22;9755;47.790;9.620;2022-08-24T03:41:27;10.50;99.90
19242;DHT22;9755;47.790;9.620;2022-08-24T03:43:54;10.30;99.90
19242;DHT22;9755;47.790;9.620;2022-08-24T03:46:24;10.10;99.90
19242;DHT22;9755;47.790;9.620;2022-08-24T03:48:53;10.10;99.90
19242;DHT22;9755;47.790;9.620;2022-08-24T03:51:22;10.00;99.90
19242;DHT22;9755;47.790;9.620;2022-08-24T03:53:52;10.00;99.90
19242;DHT22;9755;47.790;9.620;2022-08-24T03:56:20;10.30;99.90
19242;DHT22;9755;47.790;9.620;2022-08-24T03:58:47;10.60;99.90
19242;DHT22;9755;47.790;9.620;2022-08-24T04:01:15;10.90;99.90
19242;DHT22;9755;47.790;9.620;2022-08-24T04:03:44;10.80;99.90
19242;DHT22;9755;47.790;9.620;2022-08-24T04:06:13;10.80;99.90
19242;DHT22;9755;47.790;9.620;2022-08-24T04:08:41;10.80;99.90
19242;DHT22;9755;47.790;9.620;2022-08-24T04:11:11;10.60;99.90
19242;DHT22;9755;47.790;9.620;2022-08-24T04:13:40;10.50;99.90
19242;DHT22;9755;47.790;9.620;2022-08-24T04:16:08;10.40;99.90
19242;DHT22;9755;47.790;9.620;2022-08-24T04:18:37;10.40;99.90
19242;DHT22;9755;47.790;9.620;2022-08-24T04:21:05;10.40;99.90
19242;DHT22;9755;47.790;9.620;2022-08-24T04:23:32;10.40;99.90
19242;DHT22;9755;47.790;9.620;2022-08-24T04:26:01;10.50;99.90
19242;DHT22;9755;47.790;9.620;2022-08-24T04:28:31;10.50;99.90
19242;DHT22;9755;47.790;9.620;2022-08-24T04:30:58;10.60;99.90
19242;DHT22;9755;47.790;9.620;2022-08-24T04:33:25;10.40;99.90
19242;DHT22;9755;47.790;9.620;2022-08-24T04:35:52;10.60;99.90
19242;DHT22;9755;47.790;9.620;2022-08-24T04:38:20;10.80;99.90
19242;DHT22;9755;47.790;9.620;2022-08-24T04:40:47;11.00;99.90
19242;DHT22;9755;47.790;9.620;2022-08-24T04:43:15;11.10;99.90
19242;DHT22;9755;47.790;9.620;2022-08-24T04:45:45;11.30;99.90
19242;DHT22;9755;47.790;9.620;2022-08-24T04:48:14;11.30;99.90
19242;DHT22;9755;47.790;9.620;2022-08-24T04:50:42;11.30;99.90
19242;DHT22;9755;47.790;9.620;2022-08-24T04:53:11;11.40;99.90
19242;DHT22;9755;47.790;9.620;2022-08-24T04:55:43;11.50;99.90
19242;DHT22;9755;47.790;9.620;2022-08-24T04:58:11;11.50;99.90
19242;DHT22;9755;47.790;9.620;2022-08-24T05:00:39;11.40;99.90
19242;DHT22;9755;47.790;9.620;2022-08-24T05:03:08;11.50;99.90
19242;DHT22;9755;47.790;9.620;2022-08-24T05:05:38;11.50;99.90
19242;DHT22;9755;47.790;9.620;2022-08-24T05:08:06;11.50;99.90
19242;DHT22;9755;47.790;9.620;2022-08-24T05:10:33;11.50;99.90
19242;DHT22;9755;47.790;9.620;2022-08-24T05:13:00;11.50;99.90
19242;DHT22;9755;47.790;9.620;2022-08-24T05:15:27;11.60;99.90
19242;DHT22;9755;47.790;9.620;2022-08-24T05:17:55;11.90;99.90
19242;DHT22;9755;47.790;9.620;2022-08-24T05:20:24;12.50;99.90
19242;DHT22;9755;47.790;9.620;2022-08-24T05:22:51;13.20;99.90
19242;DHT22;9755;47.790;9.620;2022-08-24T05:25:18;13.80;99.90
19242;DHT22;9755;47.790;9.620;2022-08-24T05:27:46;14.30;99.20
19242;DHT22;9755;47.790;9.620;2022-08-24T05:30:13;14.90;1.00
19242;DHT22;9755;47.790;9.620;2022-08-24T05:32:41;15.50;1.00
19242;DHT22;9755;47.790;9.620;2022-08-24T05:35:08;16.10;1.00
19242;DHT22;9755;47.790;9.620;2022-08-24T05:37:38;16.90;99.90
19242;DHT22;9755;47.790;9.620;2022-08-24T05:40:07;17.70;16.60
19242;DHT22;9755;47.790;9.620;2022-08-24T05:42:35;18.00;1.00
19242;DHT22;9755;47.790;9.620;2022-08-24T05:45:03;18.70;99.90
19242;DHT22;9755;47.790;9.620;2022-08-24T05:47:31;19.10;1.00
19242;DHT22;9755;47.790;9.620;2022-08-24T05:49:59;19.30;1.00
19242;DHT22;9755;47.790;9.620;2022-08-24T05:52:27;19.90;1.00
19242;DHT22;9755;47.790;9.620;2022-08-24T05:54:57;20.90;1.00
19242;DHT22;9755;47.790;9.620;2022-08-24T05:57:27;20.80;1.00
19242;DHT22;9755;47.790;9.620;2022-08-24T05:59:56;21.80;1.00
19242;DHT22;9755;47.790;9.620;2022-08-24T06:02:23;22.10;99.90
19242;DHT22;9755;47.790;9.620;2022-08-24T06:04:50;22.70;72.60
19242;DHT22;9755;47.790;9.620;2022-08-24T06:07:18;23.20;98.10
19242;DHT22;9755;47.790;9.620;2022-08-24T06:09:45;23.00;1.00
19242;DHT22;9755;47.790;9.620;2022-08-24T06:12:13;23.10;1.00
19242;DHT22;9755;47.790;9.620;2022-08-24T06:14:44;23.00;99.90
19242;DHT22;9755;47.790;9.620;2022-08-24T06:17:12;22.70;1.00
19242;DHT22;9755;47.790;9.620;2022-08-24T06:19:39;21.40;1.00
19242;DHT22;9755;47.790;9.620;2022-08-24T06:22:06;21.30;99.90
19242;DHT22;9755;47.790;9.620;2022-08-24T06:24:35;21.00;1.00
19242;DHT22;9755;47.790;9.620;2022-08-24T06:27:21;20.90;99.90
19242;DHT22;9755;47.790;9.620;2022-08-24T06:29:51;21.60;99.90
19242;DHT22;9755;47.790;9.620;2022-08-24T06:32:19;22.00;1.00
19242;DHT22;9755;47.790;9.620;2022-08-24T06:34:46;21.90;1.00
19242;DHT22;9755;47.790;9.620;2022-08-24T06:37:13;21.40;1.00
19242;DHT22;9755;47.790;9.620;2022-08-24T06:39:40;21.50;99.90
19242;DHT22;9755;47.790;9.620;2022-08-24T06:42:07;21.40;99.90
19242;DHT22;9755;47.790;9.620;2022-08-24T06:44:37;21.30;1.00
19242;DHT22;9755;47.790;9.620;2022-08-24T06:47:04;21.50;1.00
19242;DHT22;9755;47.790;9.620;2022-08-24T06:49:31;21.10;1.00
19242;DHT22;9755;47.790;9.620;2022-08-24T06:51:58;21.90;82.60
19242;DHT22;9755;47.790;9.620;2022-08-24T06:54:25;22.40;1.00
19242;DHT22;9755;47.790;9.620;2022-08-24T06:56:52;23.30;99.90
19242;DHT22;9755;47.790;9.620;2022-08-24T06:59:23;23.90;99.90
19242;DHT22;9755;47.790;9.620;2022-08-24T07:01:53;24.00;99.90
19242;DHT22;9755;47.790;9.620;2022-08-24T07:04:20;23.30;31.00
19242;DHT22;9755;47.790;9.620;2022-08-24T07:06:47;22.70;76.70
19242;DHT22;9755;47.790;9.620;2022-08-24T07:09:14;22.50;1.00
19242;DHT22;9755;47.790;9.620;2022-08-24T07:11:42;22.60;1.00
19242;DHT22;9755;47.790;9.620;2022-08-24T07:14:09;22.80;1.00
19242;DHT22;9755;47.790;9.620;2022-08-24T07:16:36;23.30;53.20
19242;DHT22;9755;47.790;9.620;2022-08-24T07:19:05;24.60;99.90
19242;DHT22;9755;47.790;9.620;2022-08-24T07:21:32;25.80;99.90
19242;DHT22;9755;47.790;9.620;2022-08-24T07:23:59;25.80;1.00
19242;DHT22;9755;47.790;9.620;2022-08-24T07:26:29;25.10;99.90
19242;DHT22;9755;47.790;9.620;2022-08-24T07:28:59;24.80;1.00
19242;DHT22;9755;47.790;9.620;2022-08-24T07:31:29;25.50;1.00
19242;DHT22;9755;47.790;9.620;2022-08-24T07:33:57;25.40;99.90
19242;DHT22;9755;47.790;9.620;2022-08-24T07:36:25;25.10;99.90
19242;DHT22;9755;47.790;9.620;2022-08-24T07:38:52;25.60;1.00
19242;DHT22;9755;47.790;9.620;2022-08-24T07:41:20;25.90;16.70
19242;DHT22;9755;47.790;9.620;2022-08-24T07:43:50;26.60;1.00
19242;DHT22;9755;47.790;9.620;2022-08-24T07:46:17;27.60;1.00
19242;DHT22;9755;47.790;9.620;2022-08-24T07:48:45;29.20;1.00
19242;DHT22;9755;47.790;9.620;2022-08-24T07:51:13;29.90;1.00
19242;DHT22;9755;47.790;9.620;2022-08-24T07:53:43;31.40;1.00
19242;DHT22;9755;47.790;9.620;2022-08-24T07:56:11;30.90;1.00
19242;DHT22;9755;47.790;9.620;2022-08-24T07:58:39;30.80;99.90
19242;DHT22;9755;47.790;9.620;2022-08-24T08:01:06;30.10;1.00
19242;DHT22;9755;47.790;9.620;2022-08-24T08:03:34;30.90;1.00
19242;DHT22;9755;47.790;9.620;2022-08-24T08:06:04;30.90;99.90
19242;DHT22;9755;47.790;9.620;2022-08-24T08:08:34;31.10;99.90
19242;DHT22;9755;47.790;9.620;2022-08-24T08:11:03;31.30;1.00
19242;DHT22;9755;47.790;9.620;2022-08-24T08:36:10;32.00;1.00
19242;DHT22;9755;47.790;9.620;2022-08-24T08:38:40;36.10;1.00
19242;DHT22;9755;47.790;9.620;2022-08-24T08:44:15;36.20;98.40
19242;DHT22;9755;47.790;9.620;2022-08-24T08:46:51;33.60;99.90
19242;DHT22;9755;47.790;9.620;2022-08-24T08:49:33;31.70;99.90
19242;DHT22;9755;47.790;9.620;2022-08-24T08:52:32;31.00;1.00
19242;DHT22;9755;47.790;9.620;2022-08-24T08:55:19;31.70;1.00
19242;DHT22;9755;47.790;9.620;2022-08-24T08:57:57;32.70;1.00
19242;DHT22;9755;47.790;9.620;2022-08-24T09:00:46;31.40;1.00
19242;DHT22;9755;47.790;9.620;2022-08-24T09:06:18;30.70;99.90
19242;DHT22;9755;47.790;9.620;2022-08-24T09:09:03;31.40;1.00
19242;DHT22;9755;47.790;9.620;2022-08-24T09:11:39;31.50;99.90
19242;DHT22;9755;47.790;9.620;2022-08-24T09:17:20;32.00;99.90
19242;DHT22;9755;47.790;9.620;2022-08-24T09:20:03;31.80;99.90
19242;DHT22;9755;47.790;9.620;2022-08-24T09:22:38;31.20;99.90
19242;DHT22;9755;47.790;9.620;2022-08-24T09:25:21;32.20;1.00
19242;DHT22;9755;47.790;9.620;2022-08-24T09:28:18;31.80;1.00
19242;DHT22;9755;47.790;9.620;2022-08-24T09:31:02;31.30;99.90
19242;DHT22;9755;47.790;9.620;2022-08-24T09:33:36;31.40;99.90
19242;DHT22;9755;47.790;9.620;2022-08-24T09:36:09;32.50;34.20
19242;DHT22;9755;47.790;9.620;2022-08-24T09:38:56;31.00;1.00
19242;DHT22;9755;47.790;9.620;2022-08-24T09:41:47;30.50;1.00
19242;DHT22;9755;47.790;9.620;2022-08-24T09:44:53;29.70;1.00
19242;DHT22;9755;47.790;9.620;2022-08-24T09:47:41;29.70;1.00
19242;DHT22;9755;47.790;9.620;2022-08-24T09:54:00;30.90;99.90
19242;DHT22;9755;47.790;9.620;2022-08-24T09:56:52;31.00;1.00
19242;DHT22;9755;47.790;9.620;2022-08-24T10:02:37;32.00;1.00
19242;DHT22;9755;47.790;9.620;2022-08-24T10:05:15;30.90;1.00
19242;DHT22;9755;47.790;9.620;2022-08-24T10:07:52;31.90;99.90
19242;DHT22;9755;47.790;9.620;2022-08-24T10:10:26;31.60;99.90
19242;DHT22;9755;47.790;9.620;2022-08-24T10:13:02;31.60;1.00
19242;DHT22;9755;47.790;9.620;2022-08-24T10:15:35;32.30;1.00
19242;DHT22;9755;47.790;9.620;2022-08-24T10:18:24;31.50;1.00
19242;DHT22;9755;47.790;9.620;2022-08-24T10:21:08;31.00;1.00
19242;DHT22;9755;47.790;9.620;2022-08-24T10:23:49;31.40;1.00
19242;DHT22;9755;47.790;9.620;2022-08-24T10:26:25;31.40;1.00
19242;DHT22;9755;47.790;9.620;2022-08-24T10:29:17;31.10;38.80
19242;DHT22;9755;47.790;9.620;2022-08-24T10:32:01;32.20;1.00
19242;DHT22;9755;47.790;9.620;2022-08-24T10:34:44;32.00;99.90
19242;DHT22;9755;47.790;9.620;2022-08-24T10:37:35;31.80;99.90
19242;DHT22;9755;47.790;9.620;2022-08-24T10:40:30;30.70;1.00
19242;DHT22;9755;47.790;9.620;2022-08-24T10:43:20;30.40;1.00
19242;DHT22;9755;47.790;9.620;2022-08-24T10:46:19;30.60;12.50
19242;DHT22;9755;47.790;9.620;2022-08-24T10:51:59;30.30;99.90
19242;DHT22;9755;47.790;9.620;2022-08-24T10:54:37;30.50;1.00
19242;DHT22;9755;47.790;9.620;2022-08-24T10:57:08;30.90;1.00
19242;DHT22;9755;47.790;9.620;2022-08-24T10:59:47;31.00;99.90
19242;DHT22;9755;47.790;9.620;2022-08-24T11:02:28;31.40;1.00
19242;DHT22;9755;47.790;9.620;2022-08-24T11:04:58;30.80;99.90
19242;DHT22;9755;47.790;9.620;2022-08-24T11:07:26;30.70;1.00
19242;DHT22;9755;47.790;9.620;2022-08-24T11:09:56;31.50;1.00
19242;DHT22;9755;47.790;9.620;2022-08-24T11:12:30;31.30;1.00
19242;DHT22;9755;47.790;9.620;2022-08-24T11:14:59;32.20;74.80
19242;DHT22;9755;47.790;9.620;2022-08-24T11:17:28;32.50;1.00
19242;DHT22;9755;47.790;9.620;2022-08-24T11:19:56;32.10;1.00
19242;DHT22;9755;47.790;9.620;2022-08-24T11:22:34;31.00;1.00
19242;DHT22;9755;47.790;9.620;2022-08-24T11:25:10;31.50;1.00
19242;DHT22;9755;47.790;9.620;2022-08-24T11:27:44;31.40;1.00
19242;DHT22;9755;47.790;9.620;2022-08-24T11:30:21;31.80;1.00
19242;DHT22;9755;47.790;9.620;2022-08-24T11:32:52;32.20;99.90
19242;DHT22;9755;47.790;9.620;2022-08-24T11:35:23;31.60;99.90
19242;DHT22;9755;47.790;9.620;2022-08-24T11:37:53;31.50;1.00
19242;DHT22;9755;47.790;9.620;2022-08-24T11:40:26;31.70;1.00
19242;DHT22;9755;47.790;9.620;2022-08-24T11:43:08;31.70;1.00
19242;DHT22;9755;47.790;9.620;2022-08-24T11:45:42;31.00;1.00
19242;DHT22;9755;47.790;9.620;2022-08-24T11:48:28;30.70;1.00
19242;DHT22;9755;47.790;9.620;2022-08-24T11:51:06;31.40;1.00
19242;DHT22;9755;47.790;9.620;2022-08-24T11:53:43;31.40;1.00
19242;DHT22;9755;47.790;9.620;2022-08-24T11:56:19;32.30;1.00
19242;DHT22;9755;47.790;9.620;2022-08-24T11:58:54;32.00;1.00
19242;DHT22;9755;47.790;9.620;2022-08-24T12:01:28;31.80;1.00
19242;DHT22;9755;47.790;9.620;2022-08-24T12:04:39;31.50;1.00
19242;DHT22;9755;47.790;9.620;2022-08-24T12:07:15;31.50;1.00
19242;DHT22;9755;47.790;9.620;2022-08-24T12:09:54;31.80;99.90
19242;DHT22;9755;47.790;9.620;2022-08-24T12:12:28;32.40;1.00
19242;DHT22;9755;47.790;9.620;2022-08-24T12:15:03;32.70;99.90
19242;DHT22;9755;47.790;9.620;2022-08-24T12:17:37;31.50;99.90
19242;DHT22;9755;47.790;9.620;2022-08-24T12:20:20;31.30;99.90
19242;DHT22;9755;47.790;9.620;2022-08-24T12:22:48;31.70;1.00
19242;DHT22;9755;47.790;9.620;2022-08-24T12:25:18;32.10;1.00
19242;DHT22;9755;47.790;9.620;2022-08-24T12:28:04;31.70;99.90
19242;DHT22;9755;47.790;9.620;2022-08-24T12:30:33;31.50;1.00
19242;DHT22;9755;47.790;9.620;2022-08-24T12:33:05;31.60;1.00
19242;DHT22;9755;47.790;9.620;2022-08-24T12:35:38;31.00;1.00
19242;DHT22;9755;47.790;9.620;2022-08-24T12:38:10;31.60;1.00
19242;DHT22;9755;47.790;9.620;2022-08-24T12:40:41;31.20;1.00
19242;DHT22;9755;47.790;9.620;2022-08-24T12:43:11;31.50;99.90
19242;DHT22;9755;47.790;9.620;2022-08-24T12:45:42;31.40;1.00
19242;DHT22;9755;47.790;9.620;2022-08-24T12:48:14;31.10;1.00
19242;DHT22;9755;47.790;9.620;2022-08-24T12:50:56;30.80;1.00
19242;DHT22;9755;47.790;9.620;2022-08-24T12:53:41;31.30;54.70
19242;DHT22;9755;47.790;9.620;2022-08-24T12:56:30;30.10;70.30
19242;DHT22;9755;47.790;9.620;2022-08-24T12:59:11;29.90;1.00
19242;DHT22;9755;47.790;9.620;2022-08-24T13:01:44;30.60;1.00
19242;DHT22;9755;47.790;9.620;2022-08-24T13:04:15;30.80;92.50
19242;DHT22;9755;47.790;9.620;2022-08-24T13:06:48;30.60;59.80
19242;DHT22;9755;47.790;9.620;2022-08-24T13:09:28;30.90;99.90
19242;DHT22;9755;47.790;9.620;2022-08-24T13:11:57;31.60;99.90
19242;DHT22;9755;47.790;9.620;2022-08-24T13:14:27;31.60;99.90
19242;DHT22;9755;47.790;9.620;2022-08-24T13:17:11;31.00;99.90
19242;DHT22;9755;47.790;9.620;2022-08-24T13:19:41;30.40;80.00
19242;DHT22;9755;47.790;9.620;2022-08-24T13:22:38;30.30;99.90
19242;DHT22;9755;47.790;9.620;2022-08-24T13:25:26;30.20;99.90
19242;DHT22;9755;47.790;9.620;2022-08-24T13:28:06;30.80;1.00
19242;DHT22;9755;47.790;9.620;2022-08-24T13:33:38;30.40;99.90
19242;DHT22;9755;47.790;9.620;2022-08-24T13:39:02;30.30;1.00
19242;DHT22;9755;47.790;9.620;2022-08-24T13:41:51;30.30;99.90
19242;DHT22;9755;47.790;9.620;2022-08-24T13:44:30;29.60;1.00
19242;DHT22;9755;47.790;9.620;2022-08-24T13:47:10;29.60;1.00
19242;DHT22;9755;47.790;9.620;2022-08-24T13:49:58;30.10;1.00
19242;DHT22;9755;47.790;9.620;2022-08-24T13:52:37;30.60;99.90
19242;DHT22;9755;47.790;9.620;2022-08-24T13:55:20;30.00;99.90
19242;DHT22;9755;47.790;9.620;2022-08-24T13:58:08;29.70;1.00
19242;DHT22;9755;47.790;9.620;2022-08-24T14:00:44;29.50;1.00
19242;DHT22;9755;47.790;9.620;2022-08-24T14:06:20;28.80;99.90
19242;DHT22;9755;47.790;9.620;2022-08-24T14:08:57;29.30;99.90
19242;DHT22;9755;47.790;9.620;2022-08-24T14:11:38;29.50;99.90
19242;DHT22;9755;47.790;9.620;2022-08-24T14:14:11;29.40;99.90
19242;DHT22;9755;47.790;9.620;2022-08-24T14:16:51;29.70;1.00
19242;DHT22;9755;47.790;9.620;2022-08-24T14:19:46;29.20;1.00
19242;DHT22;9755;47.790;9.620;2022-08-24T14:22:26;29.40;99.90
19242;DHT22;9755;47.790;9.620;2022-08-24T14:25:11;29.40;99.90
19242;DHT22;9755;47.790;9.620;2022-08-24T14:27:41;29.20;99.90
19242;DHT22;9755;47.790;9.620;2022-08-24T14:30:41;29.40;99.90
19242;DHT22;9755;47.790;9.620;2022-08-24T14:33:17;29.60;1.00
19242;DHT22;9755;47.790;9.620;2022-08-24T14:36:02;29.50;1.00
19242;DHT22;9755;47.790;9.620;2022-08-24T14:38:45;29.90;1.00
19242;DHT22;9755;47.790;9.620;2022-08-24T14:41:24;30.10;1.00
19242;DHT22;9755;47.790;9.620;2022-08-24T14:44:20;29.40;99.90
19242;DHT22;9755;47.790;9.620;2022-08-24T14:46:57;29.10;1.00
19242;DHT22;9755;47.790;9.620;2022-08-24T14:49:34;29.10;1.00
19242;DHT22;9755;47.790;9.620;2022-08-24T14:52:16;29.30;1.00
19242;DHT22;9755;47.790;9.620;2022-08-24T14:54:59;29.10;99.90
19242;DHT22;9755;47.790;9.620;2022-08-24T15:00:33;28.40;1.00
19242;DHT22;9755;47.790;9.620;2022-08-24T15:03:32;28.20;99.90
19242;DHT22;9755;47.790;9.620;2022-08-24T15:06:15;28.50;99.90
19242;DHT22;9755;47.790;9.620;2022-08-24T15:08:46;28.60;1.00
19242;DHT22;9755;47.790;9.620;2022-08-24T15:11:17;28.70;1.00
19242;DHT22;9755;47.790;9.620;2022-08-24T15:13:52;28.80;99.90
19242;DHT22;9755;47.790;9.620;2022-08-24T15:16:22;28.30;99.90
19242;DHT22;9755;47.790;9.620;2022-08-24T15:18:58;28.30;1.00
19242;DHT22;9755;47.790;9.620;2022-08-24T15:21:39;28.20;99.90
19242;DHT22;9755;47.790;9.620;2022-08-24T15:24:15;28.10;99.90
19242;DHT22;9755;47.790;9.620;2022-08-24T15:27:01;28.10;99.90
19242;DHT22;9755;47.790;9.620;2022-08-24T15:29:35;28.60;99.90
19242;DHT22;9755;47.790;9.620;2022-08-24T15:32:12;28.60;99.90
19242;DHT22;9755;47.790;9.620;2022-08-24T15:34:42;28.50;99.90
19242;DHT22;9755;47.790;9.620;2022-08-24T15:37:11;28.30;94.80
19242;DHT22;9755;47.790;9.620;2022-08-24T15:39:40;28.40;99.90
19242;DHT22;9755;47.790;9.620;2022-08-24T15:42:12;28.20;99.90
19242;DHT22;9755;47.790;9.620;2022-08-24T15:44:42;28.30;99.90
19242;DHT22;9755;47.790;9.620;2022-08-24T15:47:20;28.30;1.00
19242;DHT22;9755;47.790;9.620;2022-08-24T15:49:52;28.50;99.90
19242;DHT22;9755;47.790;9.620;2022-08-24T15:52:47;28.40;99.90
19242;DHT22;9755;47.790;9.620;2022-08-24T15:55:31;28.30;99.90
19242;DHT22;9755;47.790;9.620;2022-08-24T15:58:13;28.20;86.70
19242;DHT22;9755;47.790;9.620;2022-08-24T16:00:40;28.10;99.90
19242;DHT22;9755;47.790;9.620;2022-08-24T16:03:41;28.00;40.90
19242;DHT22;9755;47.790;9.620;2022-08-24T16:06:17;27.90;99.90
19242;DHT22;9755;47.790;9.620;2022-08-24T16:08:53;27.60;25.60
19242;DHT22;9755;47.790;9.620;2022-08-24T16:11:29;27.30;99.90
19242;DHT22;9755;47.790;9.620;2022-08-24T16:13:58;27.30;1.00
19242;DHT22;9755;47.790;9.620;2022-08-24T16:16:38;27.20;1.00
19242;DHT22;9755;47.790;9.620;2022-08-24T16:19:10;27.00;99.90
19242;DHT22;9755;47.790;9.620;2022-08-24T16:21:56;26.90;99.90
19242;DHT22;9755;47.790;9.620;2022-08-24T16:24:28;26.80;97.70
19242;DHT22;9755;47.790;9.620;2022-08-24T16:26:58;26.70;99.90
19242;DHT22;9755;47.790;9.620;2022-08-24T16:29:46;26.60;99.90
19242;DHT22;9755;47.790;9.620;2022-08-24T16:32:15;26.60;99.90
19242;DHT22;9755;47.790;9.620;2022-08-24T16:34:44;26.80;99.90
19242;DHT22;9755;47.790;9.620;2022-08-24T16:37:13;26.80;1.00
19242;DHT22;9755;47.790;9.620;2022-08-24T16:39:40;26.80;1.00
19242;DHT22;9755;47.790;9.620;2022-08-24T16:42:11;26.80;8.40
19242;DHT22;9755;47.790;9.620;2022-08-24T16:44:41;27.10;93.10
19242;DHT22;9755;47.790;9.620;2022-08-24T16:47:10;27.30;1.00
19242;DHT22;9755;47.790;9.620;2022-08-24T16:49:37;27.30;99.90
19242;DHT22;9755;47.790;9.620;2022-08-24T16:52:05;27.50;1.00
19242;DHT22;9755;47.790;9.620;2022-08-24T16:54:33;27.50;1.00
19242;DHT22;9755;47.790;9.620;2022-08-24T16:57:07;27.80;34.40
19242;DHT22;9755;47.790;9.620;2022-08-24T16:59:36;27.60;99.90
19242;DHT22;9755;47.790;9.620;2022-08-24T17:02:03;27.50;1.00
19242;DHT22;9755;47.790;9.620;2022-08-24T17:04:32;27.10;1.00
19242;DHT22;9755;47.790;9.620;2022-08-24T17:07:01;26.90;1.00
19242;DHT22;9755;47.790;9.620;2022-08-24T17:09:29;27.00;1.00
19242;DHT22;9755;47.790;9.620;2022-08-24T17:11:57;27.00;1.00
19242;DHT22;9755;47.790;9.620;2022-08-24T17:14:24;26.90;1.00
19242;DHT22;9755;47.790;9.620;2022-08-24T17:16:51;26.90;1.00
19242;DHT22;9755;47.790;9.620;2022-08-24T17:19:19;26.70;1.00
19242;DHT22;9755;47.790;9.620;2022-08-24T17:21:47;26.60;1.00